Погода Гобабисна неделю

Омахеке, Намибия

01 - 07 марта
  • 01марта
    Сегодня
    +20°
    +33°
    Небольшая облачность
    ВремяПогодаТемператураВлажностьДавлениеВетер, м/сВероятность осадков
    02:00Ясно и безоблачно+22°C47 %645 мм2.0 м/с5 %
    05:00Ясно и безоблачно+20°C40 %645 мм3.3 м/с5 %
    08:00Ясно и безоблачно+23°C36 %647 мм3.0 м/с5 %
    11:00Ясно и безоблачно+30°C21 %649 мм4.5 м/с5 %
    14:00Небольшая облачность+33°C18 %648 мм2.0 м/с2 %
    17:00Облачно с прояснениями+33°C17 %646 мм0.2 м/с5 %
    20:00Небольшая облачность+27°C23 %645 мм2.1 м/с5 %
    23:00Ясно и безоблачно+26°C28 %646 мм1.4 м/с5 %
  • 02марта
    Суббота
    +20°
    +35°
    Ясно и безоблачно
    ВремяПогодаТемператураВлажностьДавлениеВетер, м/сВероятность осадков
    02:00Ясно и безоблачно+22°C35 %645 мм2.0 м/с5 %
    05:00Практически безоблачно+20°C36 %645 мм3.2 м/с5 %
    08:00Практически безоблачно+24°C31 %647 мм2.6 м/с5 %
    11:00Ясно и безоблачно+31°C16 %649 мм4.3 м/с5 %
    14:00Ясно и безоблачно+34°C13 %648 мм1.3 м/с5 %
    17:00Облачно с прояснениями+33°C11 %646 мм0.3 м/с4 %
    20:00Небольшая облачность+29°C15 %645 мм2.5 м/с6 %
    23:00Практически безоблачно+27°C19 %645 мм3.1 м/с6 %
  • 03марта
    Воскресенье
    +19°
    +35°
    Небольшая облачность
    ВремяПогодаТемператураВлажностьДавлениеВетер, м/сВероятность осадков
    02:00Ясно и безоблачно+25°C28 %646 мм3.8 м/с2 %
    05:00Ясно и безоблачно+22°C39 %645 мм1.8 м/с3 %
    08:00Ясно и безоблачно+25°C35 %647 мм1.4 м/с5 %
    11:00Ясно и безоблачно+32°C15 %648 мм4.5 м/с5 %
    14:00Небольшая облачность+34°C12 %647 мм2.1 м/с5 %
    17:00Облачно с прояснениями+33°C12 %645 мм3.0 м/с5 %
    20:00Практически безоблачно+29°C16 %644 мм3.8 м/с3 %
    23:00Небольшая облачность+27°C23 %644 мм2.2 м/с2 %
  • 04марта
    Понедельник
    +19°
    +36°
    Облачно с прояснениями
    ВремяПогодаТемператураВлажностьДавлениеВетер, м/сВероятность осадков
    02:00Практически безоблачно+25°C26 %643 мм0.7 м/с5 %
    05:00Ясно и безоблачно+21°C32 %643 мм2.2 м/с5 %
    08:00Практически безоблачно+24°C30 %645 мм1.8 м/с5 %
    11:00Ясно и безоблачно+32°C19 %646 мм2.1 м/с5 %
    14:00Облачно с прояснениями+36°C12 %645 мм3.2 м/с5 %
    17:00Облачно с прояснениями+33°C13 %643 мм3.9 м/с5 %
    20:00Небольшая облачность+30°C16 %642 мм1.9 м/с5 %
    23:00Ясно и безоблачно+28°C19 %644 мм5.8 м/с5 %
  • 05марта
    Вторник
    +16°
    +37°
    Ясно и безоблачно
    ВремяПогодаТемператураВлажностьДавлениеВетер, м/сВероятность осадков
    02:00Ясно и безоблачно+23°C19 %643 мм3.9 м/с5 %
    05:00Ясно и безоблачно+20°C25 %643 мм3.6 м/с5 %
    08:00Ясно и безоблачно+22°C34 %645 мм2.6 м/с5 %
    11:00Ясно и безоблачно+29°C21 %646 мм2.0 м/с5 %
    14:00Ясно и безоблачно+34°C14 %645 мм1.3 м/с5 %
    17:00Практически безоблачно+37°C10 %644 мм3.7 м/с5 %
    20:00Ясно и безоблачно+30°C11 %643 мм6.8 м/с5 %
    23:00Ясно и безоблачно+25°C21 %644 мм2.3 м/с5 %
Мы используем cookies
Соглашаюсь